Time;durP1;ratioP1;P1;durP2;ratioP2;P2;SDS_P1;SDS_P2;PMS_P1;PMS_P2;Temp;Humidity;BMP_temperature;BMP_pressure;BME280_temperature;BME280_humidity;BME280_pressure;Samples;Min_cycle;Max_cycle;Signal;HPM_P1;HPM_P2
2022/02/03 00:01:40;;;;;;;13.20;7.80;;;;;;;;;;4992505;28;20081;-70
2022/02/03 00:04:13;;;;;;;13.80;8.73;;;;;;;;;;4993084;28;20054;-70
2022/02/03 00:06:56;;;;;;;13.45;9.23;;;;;;;;;;4992046;28;20050;-70
2022/02/03 00:25:38;;;;;;;13.35;9.45;;;;;;;;;;4990183;28;20313;-70
2022/02/03 00:28:17;;;;;;;13.45;9.18;;;;;;;;;;4991705;28;20505;-69
2022/02/03 00:33:24;;;;;;;;;;;;;;;;;;4992933;28;20112;-70
2022/02/03 00:36:18;;;;;;;15.38;9.63;;;;;;;;;;4992798;28;19922;-70
2022/02/03 00:49:55;;;;;;;15.77;10.45;;;;;;;;;;5012309;28;20384;-70
2022/02/03 00:52:22;;;;;;;13.35;9.23;;;;;;;;;;5011057;28;20100;-70
2022/02/03 00:54:49;;;;;;;16.35;10.88;;;;;;;;;;5011939;28;20137;-70
2022/02/03 00:57:19;;;;;;;16.25;10.90;;;;;;;;;;5011978;28;20049;-70
2022/02/03 00:59:57;;;;;;;14.75;10.40;;;;;;;;;;4995149;28;20108;-70
2022/02/03 01:02:24;;;;;;;15.88;10.75;;;;;;;;;;5011869;28;20089;-70
2022/02/03 01:04:50;;;;;;;17.05;10.15;;;;;;;;;;5010738;28;20100;-70
2022/02/03 01:07:19;;;;;;;17.52;10.88;;;;;;;;;;5011784;28;20119;-70
2022/02/03 01:10:00;;;;;;;20.90;14.25;;;;;;;;;;5011889;28;20140;-70
2022/02/03 01:12:54;;;;;;;23.52;14.77;;;;;;;;;;5011626;28;20058;-69
2022/02/03 01:15:25;;;;;;;19.02;12.43;;;;;;;;;;4999878;28;20082;-70
2022/02/03 01:52:33;;;;;;;20.08;12.70;;;;;;;;;;5011334;28;20046;-70
2022/02/03 01:55:03;;;;;;;15.32;11.95;;;;;;;;;;5010815;28;20046;-70
2022/02/03 01:57:34;;;;;;;18.58;12.50;;;;;;;;;;5014012;28;20050;-69
2022/02/03 02:00:12;;;;;;;20.20;12.40;;;;;;;;;;5015088;28;20058;-69
2022/02/03 02:03:06;;;;;;;20.23;13.10;;;;;;;;;;5015142;28;20570;-69
2022/02/03 02:06:03;;;;;;;20.85;11.98;;;;;;;;;;5002323;28;20050;-69
2022/02/03 02:08:52;;;;;;;15.70;11.10;;;;;;;;;;4973682;28;20509;-69
2022/02/03 02:40:07;;;;;;;17.50;12.38;;;;;;;;;;4994003;28;20053;-69
2022/02/03 02:42:49;;;;;;;16.48;12.18;;;;;;;;;;4994788;28;20050;-70
2022/02/03 02:45:16;;;;;;;19.13;13.50;;;;;;;;;;5001950;28;20115;-69
2022/02/03 02:48:09;;;;;;;18.33;12.45;;;;;;;;;;5029483;28;20049;-69
2022/02/03 02:53:24;;;;;;;18.63;11.38;;;;;;;;;;5003500;28;20042;-69
2022/02/03 02:56:13;;;;;;;17.30;11.98;;;;;;;;;;5006736;28;20528;-70
2022/02/03 02:58:59;;;;;;;17.65;12.55;;;;;;;;;;5024001;28;20041;-69
2022/02/03 03:02:10;;;;;;;16.08;12.13;;;;;;;;;;5028036;28;20107;-69
2022/02/03 03:37:59;;;;;;;19.05;12.15;;;;;;;;;;5013305;28;20050;-69
2022/02/03 03:40:28;;;;;;;17.42;11.57;;;;;;;;;;5012239;28;20046;-69
2022/02/03 03:43:04;;;;;;;16.17;10.82;;;;;;;;;;5011774;28;20069;-69
2022/02/03 03:45:32;;;;;;;17.65;11.18;;;;;;;;;;5012631;28;20046;-69
2022/02/03 03:48:06;;;;;;;16.10;11.43;;;;;;;;;;5013104;28;20054;-69
2022/02/03 03:50:35;;;;;;;16.02;11.13;;;;;;;;;;5013333;28;20092;-69
2022/02/03 03:53:09;;;;;;;18.42;11.60;;;;;;;;;;5012695;28;20058;-69
2022/02/03 03:55:53;;;;;;;17.67;12.30;;;;;;;;;;5008918;28;20050;-70
2022/02/03 04:44:08;;;;;;;16.60;9.95;;;;;;;;;;5012112;28;20057;-69
2022/02/03 04:50:58;;;;;;;14.05;10.45;;;;;;;;;;4984444;28;20086;-69
2022/02/03 05:04:55;;;;;;;15.38;9.95;;;;;;;;;;5023527;28;20057;-70
2022/02/03 05:17:44;;;;;;;16.50;10.43;;;;;;;;;;5022095;28;20081;-70
2022/02/03 06:05:44;;;;;;;21.10;11.80;;;;;;;;;;4975027;28;20055;-67
2022/02/03 06:08:27;;;;;;;19.35;10.80;;;;;;;;;;4976157;28;20055;-67
2022/02/03 06:13:48;;;;;;;18.77;11.63;;;;;;;;;;4975942;28;20121;-67
2022/02/03 06:21:29;;;;;;;17.42;11.20;;;;;;;;;;4975960;28;20050;-67
2022/02/03 06:29:19;;;;;;;15.57;10.05;;;;;;;;;;4956527;28;20467;-67
2022/02/03 06:31:48;;;;;;;15.88;10.38;;;;;;;;;;4975546;28;20109;-68
2022/02/03 06:34:17;;;;;;;14.70;9.88;;;;;;;;;;4974259;28;20086;-67
2022/02/03 06:36:43;;;;;;;15.52;10.35;;;;;;;;;;4975723;28;20469;-67
2022/02/03 06:39:23;;;;;;;16.90;9.95;;;;;;;;;;4975633;28;20042;-67
2022/02/03 06:41:53;;;;;;;15.90;9.90;;;;;;;;;;4975229;28;20210;-68
2022/02/03 06:44:23;;;;;;;15.90;10.65;;;;;;;;;;4958140;28;20513;-67
2022/02/03 06:46:52;;;;;;;15.48;10.20;;;;;;;;;;4975599;28;20051;-69
2022/02/03 06:49:35;;;;;;;15.15;9.57;;;;;;;;;;4975242;28;20051;-67
2022/02/03 06:52:08;;;;;;;15.03;9.57;;;;;;;;;;4974300;28;20060;-67
2022/02/03 06:54:44;;;;;;;17.13;9.90;;;;;;;;;;4975376;28;20465;-67
2022/02/03 06:57:18;;;;;;;15.18;9.68;;;;;;;;;;4975122;28;20460;-67
2022/02/03 07:00:10;;;;;;;13.90;8.93;;;;;;;;;;4975262;28;20082;-67
2022/02/03 07:02:36;;;;;;;13.20;8.77;;;;;;;;;;4974372;28;20058;-67
2022/02/03 07:05:04;;;;;;;10.52;7.82;;;;;;;;;;4965957;28;20458;-67
2022/02/03 07:07:30;;;;;;;11.85;9.05;;;;;;;;;;4966755;28;20129;-67
2022/02/03 07:09:57;;;;;;;12.43;8.95;;;;;;;;;;4972658;28;20051;-67
2022/02/03 07:12:24;;;;;;;14.18;9.95;;;;;;;;;;4955470;29;20106;-66
2022/02/03 07:14:51;;;;;;;14.82;9.52;;;;;;;;;;4955313;28;20490;-68
2022/02/03 07:17:17;;;;;;;15.95;10.73;;;;;;;;;;4961654;28;20050;-66
2022/02/03 07:19:46;;;;;;;16.08;10.18;;;;;;;;;;4994119;28;20046;-66
2022/02/03 07:22:14;;;;;;;15.00;9.30;;;;;;;;;;4993954;28;20050;-66
2022/02/03 07:24:45;;;;;;;15.95;9.15;;;;;;;;;;4988627;28;20089;-69
2022/02/03 07:27:12;;;;;;;10.85;8.00;;;;;;;;;;4974267;28;20109;-66
2022/02/03 07:29:39;;;;;;;13.25;8.57;;;;;;;;;;4968659;28;20528;-67
2022/02/03 07:32:06;;;;;;;14.38;9.32;;;;;;;;;;4970331;28;20174;-67
2022/02/03 07:34:34;;;;;;;14.35;8.90;;;;;;;;;;4972832;28;20065;-67
2022/02/03 07:37:05;;;;;;;13.25;8.98;;;;;;;;;;4969136;28;20043;-67
2022/02/03 07:39:33;;;;;;;12.32;7.97;;;;;;;;;;4971136;28;20043;-67
2022/02/03 07:42:00;;;;;;;13.95;9.13;;;;;;;;;;4953730;28;20406;-66
2022/02/03 07:44:27;;;;;;;16.63;10.95;;;;;;;;;;4972943;28;20097;-67
2022/02/03 07:46:53;;;;;;;12.43;8.57;;;;;;;;;;4956733;28;20101;-67
2022/02/03 07:49:20;;;;;;;13.80;9.23;;;;;;;;;;4974562;28;20409;-68
2022/02/03 07:51:47;;;;;;;12.02;8.32;;;;;;;;;;4973403;28;20281;-68
2022/02/03 07:54:13;;;;;;;14.88;9.23;;;;;;;;;;4972593;28;20051;-68
2022/02/03 07:56:40;;;;;;;13.80;9.05;;;;;;;;;;4973686;28;20047;-68
2022/02/03 07:59:06;;;;;;;11.10;8.45;;;;;;;;;;4970004;28;20489;-68
2022/02/03 08:01:34;;;;;;;12.23;8.40;;;;;;;;;;4973735;28;20058;-67
2022/02/03 08:04:04;;;;;;;14.00;7.82;;;;;;;;;;4973849;28;20069;-68
2022/02/03 08:06:34;;;;;;;12.32;8.57;;;;;;;;;;4973974;28;20054;-69
2022/02/03 08:09:12;;;;;;;12.07;8.15;;;;;;;;;;4972514;28;20076;-68
2022/02/03 08:11:44;;;;;;;13.40;7.88;;;;;;;;;;4972118;28;20050;-72
2022/02/03 08:14:18;;;;;;;11.85;7.70;;;;;;;;;;4973776;28;20050;-67
2022/02/03 08:17:01;;;;;;;11.25;8.10;;;;;;;;;;4957883;28;20051;-68
2022/02/03 08:19:56;;;;;;;13.33;7.83;;;;;;;;;;4975412;28;20498;-68
2022/02/03 08:22:20;;;;;;;14.98;8.00;;;;;;;;;;4976213;28;20051;-69
2022/02/03 08:32:29;;;;;;;14.07;7.68;;;;;;;;;;4973134;28;20101;-67
2022/02/03 08:37:30;;;;;;;10.77;7.32;;;;;;;;;;4969969;28;20114;-68
2022/02/03 08:40:09;;;;;;;10.48;7.72;;;;;;;;;;4947581;28;20043;-67
2022/02/03 08:42:36;;;;;;;7.68;6.78;;;;;;;;;;4970068;28;20054;-67
2022/02/03 08:45:03;;;;;;;7.78;6.72;;;;;;;;;;4967537;28;20051;-66
2022/02/03 08:47:29;;;;;;;10.07;6.68;;;;;;;;;;4969975;28;20051;-67
2022/02/03 08:49:56;;;;;;;11.93;7.13;;;;;;;;;;4969141;28;20047;-67
2022/02/03 08:52:32;;;;;;;10.50;7.78;;;;;;;;;;4969616;28;20054;-68
2022/02/03 08:57:43;;;;;;;10.75;7.25;;;;;;;;;;4970011;28;20055;-69
2022/02/03 09:00:32;;;;;;;9.00;6.50;;;;;;;;;;4969420;28;20391;-67
2022/02/03 09:37:10;;;;;;;7.93;5.88;;;;;;;;;;4969937;28;20047;-69
2022/02/03 09:40:16;;;;;;;8.02;5.65;;;;;;;;;;4971485;28;20078;-68
2022/02/03 09:58:53;;;;;;;4.07;3.33;;;;;;;;;;4971499;28;20055;-65
2022/02/03 10:01:30;;;;;;;3.88;3.20;;;;;;;;;;4971732;28;20085;-65
2022/02/03 10:07:09;;;;;;;2.70;2.50;;;;;;;;;;4980929;28;20051;-65
2022/02/03 10:09:37;;;;;;;6.20;3.15;;;;;;;;;;4971264;28;20054;-65
2022/02/03 10:12:04;;;;;;;4.03;3.25;;;;;;;;;;4957809;28;20111;-65
2022/02/03 10:14:41;;;;;;;3.00;2.70;;;;;;;;;;4955460;28;20043;-68
2022/02/03 10:17:08;;;;;;;3.88;2.95;;;;;;;;;;4971856;28;20569;-66
2022/02/03 10:19:43;;;;;;;2.72;2.42;;;;;;;;;;4976043;28;20057;-67
2022/02/03 10:22:13;;;;;;;6.00;2.53;;;;;;;;;;4975482;28;20082;-66
2022/02/03 10:24:42;;;;;;;3.42;2.47;;;;;;;;;;4975496;28;20126;-64
2022/02/03 10:27:24;;;;;;;4.00;2.17;;;;;;;;;;4975471;28;20051;-66
2022/02/03 10:30:06;;;;;;;3.20;2.53;;;;;;;;;;4975543;28;20062;-65
2022/02/03 10:32:40;;;;;;;4.07;2.67;;;;;;;;;;4974335;28;20058;-66
2022/02/03 10:35:51;;;;;;;4.78;2.85;;;;;;;;;;4975504;28;20510;-66
2022/02/03 10:41:21;;;;;;;3.90;2.40;;;;;;;;;;4974397;28;20043;-66
2022/02/03 10:57:38;;;;;;;2.85;1.90;;;;;;;;;;4975714;28;20074;-67
2022/02/03 11:03:23;;;;;;;3.08;1.98;;;;;;;;;;4962297;28;20046;-71
2022/02/03 11:10:55;;;;;;;1.45;1.13;;;;;;;;;;4941984;28;20457;-69
2022/02/03 11:13:22;;;;;;;1.48;1.35;;;;;;;;;;4939256;28;20051;-68
2022/02/03 11:15:49;;;;;;;2.10;1.40;;;;;;;;;;4932467;28;20059;-70
2022/02/03 11:18:17;;;;;;;1.90;1.08;;;;;;;;;;4956614;28;20117;-71
2022/02/03 11:20:44;;;;;;;1.27;1.13;;;;;;;;;;4956793;28;20051;-71
2022/02/03 11:39:44;;;;;;;3.40;1.90;;;;;;;;;;4973032;28;20113;-74
2022/02/03 12:02:04;;;;;;;2.47;2.28;;;;;;;;;;4991767;28;20046;-67
2022/02/03 12:05:07;;;;;;;5.05;2.67;;;;;;;;;;4981043;28;20085;-70
2022/02/03 12:08:03;;;;;;;3.17;2.28;;;;;;;;;;4977481;28;20407;-69
2022/02/03 12:21:28;;;;;;;3.20;2.45;;;;;;;;;;4993367;28;20054;-69
2022/02/03 12:24:24;;;;;;;2.17;1.98;;;;;;;;;;4991980;28;20120;-68
2022/02/03 12:27:02;;;;;;;2.75;1.83;;;;;;;;;;4994450;28;20093;-71
2022/02/03 12:29:39;;;;;;;2.47;1.92;;;;;;;;;;4999985;28;20058;-72
2022/02/03 12:32:24;;;;;;;2.08;1.88;;;;;;;;;;5003721;28;20108;-71
2022/02/03 12:43:13;;;;;;;2.22;1.58;;;;;;;;;;4997740;28;20046;-69
2022/02/03 12:45:39;;;;;;;2.63;1.88;;;;;;;;;;4975812;28;20583;-71
2022/02/03 12:48:06;;;;;;;3.42;1.60;;;;;;;;;;4991188;28;20050;-70
2022/02/03 12:50:35;;;;;;;4.47;1.75;;;;;;;;;;4969060;28;20050;-68
2022/02/03 12:53:03;;;;;;;2.35;1.60;;;;;;;;;;4990709;28;20100;-67
2022/02/03 12:55:35;;;;;;;1.65;1.45;;;;;;;;;;4990945;28;20050;-66
2022/02/03 12:58:15;;;;;;;2.05;1.67;;;;;;;;;;4989822;28;20390;-68
2022/02/03 13:00:56;;;;;;;3.00;1.30;;;;;;;;;;4988900;28;20097;-68
2022/02/03 13:03:30;;;;;;;2.90;1.45;;;;;;;;;;4990675;28;20081;-67
2022/02/03 13:06:02;;;;;;;3.60;2.00;;;;;;;;;;4987205;28;20500;-65
2022/02/03 13:08:33;;;;;;;1.80;1.55;;;;;;;;;;4990559;28;20058;-64
2022/02/03 13:11:07;;;;;;;1.80;1.35;;;;;;;;;;4990238;28;20494;-65
2022/02/03 13:13:43;;;;;;;2.15;1.58;;;;;;;;;;4990590;28;20077;-65
2022/02/03 13:16:11;;;;;;;1.95;1.60;;;;;;;;;;4990731;28;20050;-67
2022/02/03 13:18:46;;;;;;;3.60;1.42;;;;;;;;;;4990680;28;20050;-64
2022/02/03 13:24:20;;;;;;;2.78;1.50;;;;;;;;;;4988973;28;20046;-67
2022/02/03 13:26:48;;;;;;;2.38;1.60;;;;;;;;;;4988540;28;20046;-69
2022/02/03 13:29:47;;;;;;;2.40;1.92;;;;;;;;;;4988039;28;20046;-67
2022/02/03 13:32:14;;;;;;;1.55;1.40;;;;;;;;;;4987849;28;20078;-68
2022/02/03 13:35:01;;;;;;;1.40;1.25;;;;;;;;;;4986283;28;20497;-68
2022/02/03 13:37:40;;;;;;;2.95;1.35;;;;;;;;;;4986809;28;20104;-66
2022/02/03 13:40:17;;;;;;;2.35;1.50;;;;;;;;;;4988483;28;20046;-65
2022/02/03 13:42:49;;;;;;;2.20;1.40;;;;;;;;;;4985070;28;20073;-70
2022/02/03 13:45:18;;;;;;;3.80;1.60;;;;;;;;;;4988155;28;20066;-70
2022/02/03 13:47:46;;;;;;;1.40;1.20;;;;;;;;;;4961381;28;20298;-68
2022/02/03 13:50:24;;;;;;;2.13;1.52;;;;;;;;;;4987714;28;20051;-68
2022/02/03 13:53:09;;;;;;;3.15;1.40;;;;;;;;;;4991170;28;20081;-70
2022/02/03 14:18:14;;;;;;;2.33;1.25;;;;;;;;;;4982773;28;20426;-68
2022/02/03 14:20:44;;;;;;;3.30;1.77;;;;;;;;;;4988826;28;20054;-68
2022/02/03 14:26:47;;;;;;;2.00;1.48;;;;;;;;;;4991537;28;20850;-68
2022/02/03 14:28:44;;;;;;;4.57;1.30;;;;;;;;;;4991671;28;20050;-68
2022/02/03 14:31:12;;;;;;;2.38;1.50;;;;;;;;;;4990750;28;20092;-69
2022/02/03 14:33:41;;;;;;;1.48;1.20;;;;;;;;;;4991744;28;20073;-69
2022/02/03 14:36:11;;;;;;;1.92;1.50;;;;;;;;;;4991672;28;20097;-69
2022/02/03 14:38:55;;;;;;;1.90;1.48;;;;;;;;;;4991346;28;20089;-71
2022/02/03 14:41:37;;;;;;;1.67;1.20;;;;;;;;;;4991683;28;20050;-67
2022/02/03 14:44:04;;;;;;;3.90;1.35;;;;;;;;;;4990735;28;20112;-67
2022/02/03 14:46:32;;;;;;;2.25;1.45;;;;;;;;;;4989372;28;20058;-66
2022/02/03 14:48:59;;;;;;;1.30;1.20;;;;;;;;;;4991399;28;20533;-69
2022/02/03 14:51:33;;;;;;;5.25;1.98;;;;;;;;;;4991287;28;20073;-73
2022/02/03 14:59:14;;;;;;;2.58;1.58;;;;;;;;;;4991020;28;20050;-70
2022/02/03 15:01:41;;;;;;;4.22;1.50;;;;;;;;;;4991254;28;20045;-69
2022/02/03 15:04:15;;;;;;;3.75;2.55;;;;;;;;;;4990224;28;20046;-69
2022/02/03 15:06:50;;;;;;;3.13;1.85;;;;;;;;;;4992042;28;20057;-69
2022/02/03 15:09:45;;;;;;;3.63;1.65;;;;;;;;;;4991343;28;20050;-73
2022/02/03 15:12:40;;;;;;;3.42;1.50;;;;;;;;;;4990260;28;20132;-72
2022/02/03 15:15:00;;;;;;;3.20;1.55;;;;;;;;;;4988217;28;20046;-67
2022/02/03 15:17:29;;;;;;;4.22;1.63;;;;;;;;;;4990108;28;20572;-67
2022/02/03 15:19:57;;;;;;;2.42;1.77;;;;;;;;;;4990558;28;20054;-67
2022/02/03 15:22:23;;;;;;;2.92;1.58;;;;;;;;;;4990427;28;20386;-66
2022/02/03 15:24:51;;;;;;;3.35;1.75;;;;;;;;;;4990571;28;20097;-71
2022/02/03 15:27:17;;;;;;;3.03;1.70;;;;;;;;;;4990114;28;20395;-70
2022/02/03 15:29:49;;;;;;;5.30;2.28;;;;;;;;;;4992064;28;20398;-69
2022/02/03 15:32:16;;;;;;;6.85;3.00;;;;;;;;;;4992414;28;20504;-71
2022/02/03 15:34:50;;;;;;;9.60;4.72;;;;;;;;;;4973247;28;20113;-72
2022/02/03 15:37:18;;;;;;;8.20;5.10;;;;;;;;;;4975125;28;20061;-71
2022/02/03 15:39:50;;;;;;;4.63;3.35;;;;;;;;;;4991994;28;20050;-71
2022/02/03 15:42:24;;;;;;;6.17;3.23;;;;;;;;;;4991515;28;20050;-71
2022/02/03 15:44:55;;;;;;;8.07;3.63;;;;;;;;;;4992079;28;20053;-71
2022/02/03 15:47:31;;;;;;;7.55;3.17;;;;;;;;;;4991482;28;20054;-71
2022/02/03 16:17:23;;;;;;;4.70;3.63;;;;;;;;;;4991319;28;20050;-68
2022/02/03 16:19:59;;;;;;;4.43;3.67;;;;;;;;;;4991528;28;20102;-68
2022/02/03 16:22:39;;;;;;;4.70;3.78;;;;;;;;;;4991702;28;20050;-70
2022/02/03 16:52:42;;;;;;;5.78;4.00;;;;;;;;;;4990983;28;20097;-67
2022/02/03 16:55:13;;;;;;;4.28;3.13;;;;;;;;;;4990597;28;20140;-65
2022/02/03 16:57:40;;;;;;;3.13;2.47;;;;;;;;;;4991372;28;20485;-68
2022/02/03 17:00:12;;;;;;;5.22;3.08;;;;;;;;;;4990470;28;20046;-70
2022/02/03 17:02:59;;;;;;;5.47;3.30;;;;;;;;;;4987866;28;20133;-72
2022/02/03 17:05:26;;;;;;;4.00;3.45;;;;;;;;;;5006272;28;20418;-68
2022/02/03 17:07:53;;;;;;;4.93;3.00;;;;;;;;;;4990321;28;20050;-70
2022/02/03 17:10:20;;;;;;;4.82;3.55;;;;;;;;;;4990451;28;20512;-70
2022/02/03 17:12:47;;;;;;;13.02;7.18;;;;;;;;;;4990219;28;20057;-70
2022/02/03 17:15:14;;;;;;;7.00;5.53;;;;;;;;;;4990484;28;20120;-69
2022/02/03 17:17:42;;;;;;;7.55;5.28;;;;;;;;;;4990340;28;20475;-69
2022/02/03 17:20:09;;;;;;;5.55;3.55;;;;;;;;;;4990683;28;20061;-70
2022/02/03 17:22:42;;;;;;;4.90;3.40;;;;;;;;;;4990084;28;20046;-70
2022/02/03 17:25:15;;;;;;;4.80;3.47;;;;;;;;;;4991066;28;20050;-69
2022/02/03 17:30:15;;;;;;;4.85;3.70;;;;;;;;;;4995034;28;20050;-69
2022/02/03 18:10:52;;;;;;;6.25;5.20;;;;;;;;;;4981426;28;20441;-71
2022/02/03 18:47:01;;;;;;;13.23;8.10;;;;;;;;;;4978581;28;20046;-68
2022/02/03 18:51:38;;;;;;;12.02;8.45;;;;;;;;;;4978655;28;20054;-66
2022/02/03 18:54:24;;;;;;;11.35;7.90;;;;;;;;;;4977569;28;20078;-65
2022/02/03 19:15:57;;;;;;;7.07;5.93;;;;;;;;;;4966326;28;20129;-69
2022/02/03 20:11:23;;;;;;;11.40;8.38;;;;;;;;;;4977819;28;20360;-67
2022/02/03 20:13:50;;;;;;;12.45;7.85;;;;;;;;;;4979193;28;20038;-69
2022/02/03 20:16:20;;;;;;;11.57;8.23;;;;;;;;;;4977650;28;20051;-68
2022/02/03 20:18:47;;;;;;;12.75;8.63;;;;;;;;;;4978445;28;20110;-68
2022/02/03 20:21:14;;;;;;;12.52;9.38;;;;;;;;;;4976766;28;20098;-68
2022/02/03 20:23:45;;;;;;;11.55;8.35;;;;;;;;;;4978439;28;20046;-69
2022/02/03 20:26:14;;;;;;;12.18;9.25;;;;;;;;;;4979644;28;20121;-69
2022/02/03 20:28:41;;;;;;;17.85;11.68;;;;;;;;;;4978061;28;20108;-70
2022/02/03 20:31:08;;;;;;;17.63;13.48;;;;;;;;;;4976418;28;20406;-66
2022/02/03 20:33:36;;;;;;;17.83;12.73;;;;;;;;;;4976599;28;20162;-67
2022/02/03 20:36:05;;;;;;;15.98;12.70;;;;;;;;;;4977839;28;20105;-66
2022/02/03 20:38:32;;;;;;;15.10;11.60;;;;;;;;;;4993867;28;20080;-67
2022/02/03 20:40:59;;;;;;;12.80;9.82;;;;;;;;;;4979840;28;20585;-66
2022/02/03 20:43:25;;;;;;;12.85;9.80;;;;;;;;;;4976837;28;20074;-66
2022/02/03 20:45:52;;;;;;;13.20;9.80;;;;;;;;;;4980270;28;20482;-67
2022/02/03 20:48:19;;;;;;;11.15;9.20;;;;;;;;;;4976206;28;20066;-68
2022/02/03 20:50:46;;;;;;;13.40;9.43;;;;;;;;;;4978945;28;20417;-68
2022/02/03 20:53:13;;;;;;;14.13;8.90;;;;;;;;;;4976093;28;20105;-68
2022/02/03 20:55:44;;;;;;;11.82;8.82;;;;;;;;;;4980493;28;20469;-68
2022/02/03 20:58:15;;;;;;;10.40;7.85;;;;;;;;;;4976774;28;20152;-67
2022/02/03 21:00:53;;;;;;;12.07;8.60;;;;;;;;;;4977353;28;20058;-67
2022/02/03 21:03:36;;;;;;;13.30;9.13;;;;;;;;;;4979733;28;20141;-67
2022/02/03 21:06:03;;;;;;;14.63;9.52;;;;;;;;;;4994214;28;20123;-68
2022/02/03 21:08:33;;;;;;;16.80;11.05;;;;;;;;;;4976587;28;20097;-68
2022/02/03 21:11:00;;;;;;;18.40;9.57;;;;;;;;;;4980239;28;20105;-68
2022/02/03 21:13:27;;;;;;;14.60;8.60;;;;;;;;;;4977552;28;20038;-67
2022/02/03 21:15:54;;;;;;;11.85;8.65;;;;;;;;;;4979937;28;20046;-68
2022/02/03 21:18:21;;;;;;;12.63;8.43;;;;;;;;;;4980028;28;20078;-67
2022/02/03 21:20:51;;;;;;;11.38;8.02;;;;;;;;;;4979920;28;20060;-67
2022/02/03 21:23:17;;;;;;;10.60;7.85;;;;;;;;;;4969568;28;20494;-67
2022/02/03 21:25:51;;;;;;;8.75;6.90;;;;;;;;;;4953832;28;20491;-68
2022/02/03 21:28:22;;;;;;;9.02;7.13;;;;;;;;;;4953989;28;20149;-69
2022/02/03 21:30:49;;;;;;;12.20;8.38;;;;;;;;;;4956999;28;20042;-68
2022/02/03 21:33:23;;;;;;;10.82;7.75;;;;;;;;;;4960905;28;20573;-68
2022/02/03 21:35:51;;;;;;;10.75;7.35;;;;;;;;;;4954002;29;20051;-69
2022/02/03 21:38:18;;;;;;;9.57;7.43;;;;;;;;;;4953782;28;20107;-67
2022/02/03 21:40:45;;;;;;;11.73;7.63;;;;;;;;;;4968447;28;20052;-68
2022/02/03 21:43:11;;;;;;;12.00;8.57;;;;;;;;;;4968275;28;20078;-69
2022/02/03 21:45:38;;;;;;;10.93;7.80;;;;;;;;;;4953731;28;20106;-68
2022/02/03 21:48:05;;;;;;;9.95;7.68;;;;;;;;;;4953524;28;20059;-68
2022/02/03 21:50:35;;;;;;;9.93;7.40;;;;;;;;;;4953953;28;20106;-68
2022/02/03 21:53:06;;;;;;;11.38;7.30;;;;;;;;;;4953595;28;20051;-69
2022/02/03 21:55:35;;;;;;;9.18;7.35;;;;;;;;;;4953711;28;20079;-68
2022/02/03 21:58:02;;;;;;;12.77;7.68;;;;;;;;;;4959873;28;20050;-68
2022/02/03 22:00:30;;;;;;;10.60;8.20;;;;;;;;;;4972770;28;20055;-68
2022/02/03 22:02:56;;;;;;;10.68;8.05;;;;;;;;;;4972574;28;20130;-67
2022/02/03 22:05:23;;;;;;;10.55;8.60;;;;;;;;;;4973004;28;20055;-67
2022/02/03 22:07:50;;;;;;;11.70;8.40;;;;;;;;;;4972573;28;20429;-68
2022/02/03 22:10:20;;;;;;;12.00;8.63;;;;;;;;;;4971197;28;20051;-68
2022/02/03 22:12:48;;;;;;;11.77;8.52;;;;;;;;;;4973933;28;20514;-65
2022/02/03 22:15:15;;;;;;;11.95;9.45;;;;;;;;;;4976345;28;20050;-67
2022/02/03 22:17:42;;;;;;;14.70;10.40;;;;;;;;;;4976237;28;20086;-68
2022/02/03 22:20:18;;;;;;;17.23;10.60;;;;;;;;;;4976341;28;20054;-68
2022/02/03 22:23:10;;;;;;;13.93;10.57;;;;;;;;;;4976190;28;20479;-67
2022/02/03 22:28:26;;;;;;;14.15;9.45;;;;;;;;;;4975945;28;20051;-68
2022/02/03 22:39:20;;;;;;;14.35;9.77;;;;;;;;;;4970637;28;20075;-67
2022/02/03 22:44:54;;;;;;;13.38;8.60;;;;;;;;;;4975981;28;20122;-68
2022/02/03 22:47:23;;;;;;;11.73;8.02;;;;;;;;;;4975752;28;20113;-68
2022/02/03 22:49:50;;;;;;;11.77;9.05;;;;;;;;;;4975876;28;20050;-69
2022/02/03 22:52:17;;;;;;;11.43;9.15;;;;;;;;;;4975517;28;20054;-68
2022/02/03 22:54:43;;;;;;;10.55;8.43;;;;;;;;;;4975534;28;20047;-66
2022/02/03 22:57:10;;;;;;;11.80;8.43;;;;;;;;;;4975308;28;20194;-68
2022/02/03 23:02:37;;;;;;;10.35;8.45;;;;;;;;;;4984348;28;20047;-68
2022/02/03 23:05:05;;;;;;;11.40;9.20;;;;;;;;;;4975013;28;20194;-67
2022/02/03 23:08:18;;;;;;;12.70;9.52;;;;;;;;;;4974884;28;20054;-68
2022/02/03 23:10:43;;;;;;;10.43;8.90;;;;;;;;;;4975949;28;20051;-68
2022/02/03 23:13:24;;;;;;;12.40;8.90;;;;;;;;;;4974956;28;20060;-68
2022/02/03 23:16:07;;;;;;;9.60;8.20;;;;;;;;;;4979555;28;20054;-68
2022/02/03 23:23:39;;;;;;;10.00;8.18;;;;;;;;;;4975056;28;20043;-68
2022/02/03 23:26:07;;;;;;;11.55;8.63;;;;;;;;;;4975000;28;20098;-67
2022/02/03 23:28:35;;;;;;;11.35;8.35;;;;;;;;;;4973741;28;20054;-69
2022/02/03 23:31:03;;;;;;;10.43;7.90;;;;;;;;;;4975060;28;20047;-69
2022/02/03 23:33:31;;;;;;;10.25;8.23;;;;;;;;;;4974634;28;20560;-68
2022/02/03 23:35:58;;;;;;;11.48;7.72;;;;;;;;;;4974916;28;20497;-68
